Terminal Aerodrome Forecast
Issued by NWS Spokane, WA

Home | Current Version | Previous Version | Text Only | Print | Product List | Glossary On
Versions: 1 2 3 4 5 6 7 8 9 10 11 12 13 14 15 16 17 18 19 20 21 22 23 24 25 26 27 28 29 30 31 32 33 34
000
FTUS46 KOTX 231733
TAFLWS
TAF
KLWS 231733Z 2318/2418 08005KT P6SM VCSH FEW050 SCT080 BKN150
     FM232000 33011KT P6SM VCTS SCT070CB BKN100
     FM232300 29018G28KT P6SM -TSRA SCT050 BKN070CB BKN100
     FM240300 28011KT P6SM VCSH SCT050 BKN120
     FM240600 27010KT P6SM SCT060 BKN120=

USA.gov is the U.S. government's official web portal to all federal, state and local government web resources and services.